createdAt,value
2023-01-28T00:01:08.445Z,11.68
2023-01-28T00:03:35.557Z,11.30
2023-01-28T00:06:07.549Z,13.02
2023-01-28T00:08:34.089Z,12.65
2023-01-28T00:11:02.282Z,13.88
2023-01-28T00:13:29.464Z,11.07
2023-01-28T00:16:00.761Z,11.93
2023-01-28T00:18:28.714Z,12.50
2023-01-28T00:20:58.964Z,12.18
2023-01-28T00:23:27.367Z,11.63
2023-01-28T00:25:54.827Z,12.73
2023-01-28T00:28:22.266Z,14.05
2023-01-28T00:30:51.051Z,14.70
2023-01-28T00:33:17.634Z,14.57
2023-01-28T00:35:46.560Z,13.23
2023-01-28T00:38:13.301Z,13.23
2023-01-28T00:40:39.833Z,13.07
2023-01-28T00:43:06.407Z,15.20
2023-01-28T00:45:33.235Z,14.73
2023-01-28T00:48:00.011Z,14.00
2023-01-28T00:50:26.531Z,13.40
2023-01-28T00:52:53.078Z,13.43
2023-01-28T00:55:19.983Z,14.25
2023-01-28T00:57:47.170Z,14.75
2023-01-28T01:00:13.905Z,14.02
2023-01-28T01:02:42.226Z,14.02
2023-01-28T01:05:09.128Z,15.30
2023-01-28T01:07:41.917Z,12.77
2023-01-28T01:10:18.003Z,14.70
2023-01-28T01:12:49.154Z,12.63
2023-01-28T01:15:17.567Z,14.40
2023-01-28T01:17:47.530Z,18.10
2023-01-28T01:20:17.243Z,14.15
2023-01-28T01:22:43.860Z,14.85
2023-01-28T01:25:13.157Z,13.63
2023-01-28T01:27:41.013Z,14.52
2023-01-28T01:30:09.178Z,14.30
2023-01-28T01:32:36.599Z,13.65
2023-01-28T01:35:06.709Z,13.52
2023-01-28T01:37:34.207Z,14.23
2023-01-28T01:40:05.031Z,13.90
2023-01-28T01:42:33.570Z,14.27
2023-01-28T01:45:06.182Z,15.25
2023-01-28T01:50:31.871Z,13.25
2023-01-28T01:53:03.380Z,13.75
2023-01-28T01:55:33.547Z,12.45
2023-01-28T01:58:05.375Z,14.40
2023-01-28T02:00:32.496Z,9.88
2023-01-28T02:02:59.721Z,11.25
2023-01-28T02:05:26.300Z,12.82
2023-01-28T02:08:16.984Z,13.25
2023-01-28T02:10:45.388Z,13.27
2023-01-28T02:13:14.820Z,12.32
2023-01-28T02:15:42.283Z,11.90
2023-01-28T02:18:08.831Z,11.00
2023-01-28T02:20:54.262Z,11.77
2023-01-28T02:23:38.823Z,12.73
2023-01-28T02:26:24.235Z,12.20
2023-01-28T02:29:10.050Z,12.45
2023-01-28T02:31:44.429Z,12.07
2023-01-28T02:34:35.819Z,10.35
2023-01-28T02:37:27.439Z,11.63
2023-01-28T02:40:10.513Z,12.98
2023-01-28T02:42:39.398Z,11.70
2023-01-28T02:45:21.538Z,10.82
2023-01-28T02:48:00.209Z,10.95
2023-01-28T02:50:40.516Z,11.43
2023-01-28T02:53:43.877Z,10.93
2023-01-28T02:56:32.661Z,10.77
2023-01-28T02:59:31.881Z,11.25
2023-01-28T03:02:09.133Z,9.90
2023-01-28T03:05:01.670Z,9.48
2023-01-28T03:07:31.356Z,11.30
2023-01-28T03:10:04.186Z,12.13
2023-01-28T03:12:50.682Z,10.02
2023-01-28T03:15:40.046Z,11.00
2023-01-28T03:18:35.851Z,8.18
2023-01-28T03:21:34.959Z,9.55
2023-01-28T03:24:44.506Z,11.90
2023-01-28T03:28:23.355Z,9.40
2023-01-28T03:31:21.112Z,8.93
2023-01-28T03:34:11.379Z,9.27
2023-01-28T03:36:47.410Z,10.35
2023-01-28T03:39:31.382Z,7.93
2023-01-28T03:42:05.597Z,10.57
2023-01-28T03:44:54.070Z,6.70
2023-01-28T03:47:26.424Z,8.55
2023-01-28T03:49:55.218Z,8.03
2023-01-28T03:52:30.670Z,7.20
2023-01-28T03:55:13.781Z,8.30
2023-01-28T03:57:41.452Z,5.65
2023-01-28T04:00:10.528Z,7.20
2023-01-28T04:02:42.833Z,7.38
2023-01-28T04:05:16.447Z,6.78
2023-01-28T04:07:48.303Z,7.65
2023-01-28T04:10:20.364Z,8.00
2023-01-28T04:12:55.005Z,6.97
2023-01-28T04:15:24.025Z,6.43
2023-01-28T04:17:50.639Z,7.55
2023-01-28T04:20:27.142Z,7.25
2023-01-28T04:22:54.885Z,6.95
2023-01-28T04:25:22.705Z,7.10
2023-01-28T04:27:49.467Z,6.78
2023-01-28T04:30:21.659Z,7.00
2023-01-28T04:33:05.762Z,8.63
2023-01-28T04:35:40.360Z,7.95
2023-01-28T04:38:11.171Z,6.72
2023-01-28T04:41:06.633Z,6.60
2023-01-28T04:43:34.859Z,8.55
2023-01-28T04:46:36.784Z,8.05
2023-01-28T04:49:16.133Z,9.90
2023-01-28T04:51:51.707Z,8.20
2023-01-28T04:54:29.051Z,7.57
2023-01-28T04:56:59.182Z,8.35
2023-01-28T04:59:25.923Z,7.88
2023-01-28T05:01:52.586Z,8.60
2023-01-28T05:04:19.774Z,7.43
2023-01-28T05:06:46.645Z,7.95
2023-01-28T05:09:18.985Z,8.68
2023-01-28T05:11:45.731Z,7.78
2023-01-28T05:14:13.345Z,7.82
2023-01-28T05:16:51.237Z,7.90
2023-01-28T05:19:19.408Z,8.57
2023-01-28T05:21:47.109Z,8.35
2023-01-28T05:24:23.161Z,8.23
2023-01-28T05:26:49.737Z,6.80
2023-01-28T05:29:16.786Z,7.10
2023-01-28T05:31:43.473Z,7.40
2023-01-28T05:34:10.152Z,6.93
2023-01-28T05:36:37.084Z,6.60
2023-01-28T05:39:14.516Z,7.95
2023-01-28T05:41:41.647Z,8.70
2023-01-28T05:44:08.318Z,7.88
2023-01-28T05:46:55.135Z,7.22
2023-01-28T05:50:00.211Z,7.80
2023-01-28T05:52:52.688Z,7.72
2023-01-28T05:55:24.582Z,6.93
2023-01-28T05:57:51.880Z,7.78
2023-01-28T06:00:21.535Z,8.05
2023-01-28T06:02:48.034Z,9.85
2023-01-28T06:05:15.735Z,9.38
2023-01-28T06:07:48.111Z,9.45
2023-01-28T06:12:44.649Z,9.20
2023-01-28T06:15:36.272Z,9.07
2023-01-28T06:18:16.239Z,9.38
2023-01-28T06:20:45.894Z,7.60
2023-01-28T06:23:12.511Z,8.18
2023-01-28T06:25:39.113Z,9.02
2023-01-28T06:28:09.923Z,10.27
2023-01-28T06:30:36.465Z,8.27
2023-01-28T06:33:03.244Z,8.60
2023-01-28T06:35:29.876Z,7.90
2023-01-28T06:37:56.772Z,8.57
2023-01-28T06:40:24.952Z,8.30
2023-01-28T06:42:51.450Z,11.45
2023-01-28T06:45:18.007Z,8.65
2023-01-28T06:47:44.604Z,12.70
2023-01-28T06:50:11.613Z,12.13
2023-01-28T06:52:38.210Z,11.50
2023-01-28T06:55:05.187Z,10.68
2023-01-28T06:57:31.699Z,11.80
2023-01-28T06:59:58.229Z,10.90
2023-01-28T07:02:27.497Z,10.52
2023-01-28T07:04:54.249Z,11.82
2023-01-28T07:07:20.935Z,11.82
2023-01-28T07:09:47.444Z,11.88
2023-01-28T07:12:14.071Z,10.82
2023-01-28T07:14:40.639Z,11.07
2023-01-28T07:17:07.159Z,12.45
2023-01-28T07:19:33.683Z,11.55
2023-01-28T07:22:03.010Z,11.27
2023-01-28T07:24:30.460Z,11.50
2023-01-28T07:26:57.098Z,11.60
2023-01-28T07:29:23.647Z,11.82
2023-01-28T07:31:50.725Z,14.52
2023-01-28T07:34:17.329Z,11.75
2023-01-28T07:36:43.869Z,12.63
2023-01-28T07:39:12.881Z,14.80
2023-01-28T07:41:39.542Z,12.95
2023-01-28T07:44:06.833Z,14.55
2023-01-28T07:46:33.332Z,13.77
2023-01-28T07:49:00.250Z,13.52
2023-01-28T07:51:26.861Z,13.13
2023-01-28T07:53:53.518Z,13.25
2023-01-28T07:56:20.121Z,12.07
2023-01-28T07:58:50.206Z,13.70
2023-01-28T08:01:18.207Z,12.35
2023-01-28T08:03:44.727Z,13.40
2023-01-28T08:06:11.695Z,12.75
2023-01-28T08:08:38.202Z,14.77
2023-01-28T08:11:09.282Z,14.70
2023-01-28T08:13:35.982Z,13.82
2023-01-28T08:16:03.115Z,13.98
2023-01-28T08:18:29.801Z,13.52
2023-01-28T08:20:57.921Z,13.27
2023-01-28T08:23:26.878Z,14.43
2023-01-28T08:25:54.067Z,11.65
2023-01-28T08:28:21.727Z,13.15
2023-01-28T08:30:48.402Z,12.65
2023-01-28T08:33:16.236Z,13.02
2023-01-28T08:35:43.048Z,10.88
2023-01-28T08:38:11.949Z,11.65
2023-01-28T08:40:38.859Z,13.57
2023-01-28T08:43:06.529Z,14.18
2023-01-28T08:45:33.336Z,13.30
2023-01-28T08:48:02.292Z,15.32
2023-01-28T08:50:34.971Z,14.38
2023-01-28T08:53:07.040Z,12.73
2023-01-28T08:55:34.544Z,14.55
2023-01-28T08:58:06.945Z,14.48
2023-01-28T09:00:34.997Z,13.65
2023-01-28T09:03:04.620Z,15.07
2023-01-28T09:05:33.983Z,14.63
2023-01-28T09:08:06.531Z,15.73
2023-01-28T09:12:59.538Z,13.52
2023-01-28T09:15:26.377Z,13.27
2023-01-28T09:17:59.808Z,14.48
2023-01-28T09:20:27.575Z,13.65
2023-01-28T09:22:54.711Z,11.90
2023-01-28T09:25:23.936Z,12.00
2023-01-28T09:27:50.653Z,12.43
2023-01-28T09:30:17.839Z,13.15
2023-01-28T09:32:44.717Z,12.20
2023-01-28T09:35:11.828Z,14.10
2023-01-28T09:37:38.365Z,12.52
2023-01-28T09:40:05.676Z,13.07
2023-01-28T09:42:44.893Z,12.50
2023-01-28T09:45:17.482Z,14.32
2023-01-28T09:50:34.103Z,13.82
2023-01-28T09:53:07.526Z,14.90
2023-01-28T09:55:44.515Z,13.68
2023-01-28T09:58:13.531Z,15.43
2023-01-28T10:00:59.097Z,13.55
2023-01-28T10:03:41.169Z,12.80
2023-01-28T10:06:23.916Z,13.90
2023-01-28T10:09:05.422Z,12.60
2023-01-28T10:12:17.199Z,13.75
2023-01-28T10:14:55.963Z,12.68
2023-01-28T10:17:43.571Z,14.70
2023-01-28T10:20:14.051Z,13.27
2023-01-28T10:22:54.891Z,11.82
2023-01-28T10:25:25.693Z,12.27
2023-01-28T10:27:52.539Z,11.27
2023-01-28T10:30:22.274Z,10.48
2023-01-28T10:32:53.667Z,12.20
2023-01-28T10:35:21.769Z,11.20
2023-01-28T10:37:48.899Z,11.93
2023-01-28T10:40:17.988Z,10.63
2023-01-28T10:42:45.575Z,9.90
2023-01-28T10:45:23.147Z,10.52
2023-01-28T10:47:55.957Z,11.07
2023-01-28T10:50:27.711Z,9.70
2023-01-28T10:52:59.033Z,9.60
2023-01-28T10:55:29.809Z,9.40
2023-01-28T10:57:56.896Z,10.70
2023-01-28T11:00:26.906Z,8.35
2023-01-28T11:02:54.215Z,9.07
2023-01-28T11:05:25.740Z,8.77
2023-01-28T11:08:13.068Z,9.48
2023-01-28T11:10:40.380Z,8.80
2023-01-28T11:13:16.349Z,9.48
2023-01-28T11:15:50.739Z,7.85
2023-01-28T11:18:28.353Z,8.57
2023-01-28T11:20:59.074Z,7.85
2023-01-28T11:23:35.868Z,8.75
2023-01-28T11:26:15.818Z,7.53
2023-01-28T11:28:43.488Z,8.13
2023-01-28T11:31:14.848Z,7.10
2023-01-28T11:33:50.695Z,7.97
2023-01-28T11:36:23.348Z,6.80
2023-01-28T11:41:37.398Z,8.90
2023-01-28T11:44:19.253Z,7.63
2023-01-28T11:46:55.980Z,7.70
2023-01-28T11:49:32.617Z,8.48
2023-01-28T11:52:24.555Z,8.07
2023-01-28T11:55:21.608Z,7.47
2023-01-28T11:58:14.397Z,7.38
2023-01-28T12:01:22.121Z,7.47
2023-01-28T12:04:03.953Z,10.15
2023-01-28T12:06:42.610Z,7.83
2023-01-28T12:09:50.085Z,7.05
2023-01-28T12:12:47.668Z,8.20
2023-01-28T12:15:34.154Z,6.60
2023-01-28T12:18:06.441Z,7.25
2023-01-28T12:20:57.958Z,6.70
2023-01-28T12:23:58.333Z,6.20
2023-01-28T12:26:47.369Z,8.38
2023-01-28T12:29:25.970Z,6.75
2023-01-28T12:31:52.577Z,7.28
2023-01-28T12:34:46.870Z,7.97
2023-01-28T12:37:25.449Z,7.30
2023-01-28T12:40:06.871Z,6.78
2023-01-28T12:42:45.594Z,8.38
2023-01-28T12:45:19.221Z,7.07
2023-01-28T12:48:02.287Z,7.35
2023-01-28T12:50:38.113Z,8.00
2023-01-28T12:53:28.359Z,8.00
2023-01-28T12:56:16.794Z,8.00
2023-01-28T12:59:23.720Z,7.22
2023-01-28T13:02:12.112Z,7.60
2023-01-28T13:05:05.938Z,8.52
2023-01-28T13:07:53.486Z,9.45
2023-01-28T13:10:19.962Z,7.30
2023-01-28T13:12:48.223Z,7.65
2023-01-28T13:15:18.351Z,7.03
2023-01-28T13:17:56.475Z,7.65
2023-01-28T13:20:50.680Z,8.27
2023-01-28T13:23:22.824Z,8.18
2023-01-28T13:25:52.887Z,7.25
2023-01-28T13:28:28.892Z,7.55
2023-01-28T13:31:08.710Z,7.05
2023-01-28T13:33:41.331Z,6.35
2023-01-28T13:38:59.659Z,7.38
2023-01-28T13:41:48.193Z,7.60
2023-01-28T13:44:32.469Z,7.07
2023-01-28T13:47:08.379Z,7.20
2023-01-28T13:49:41.248Z,8.45
2023-01-28T13:52:16.280Z,7.53
2023-01-28T13:54:51.687Z,7.75
2023-01-28T13:57:49.341Z,7.72
2023-01-28T14:00:25.180Z,8.20
2023-01-28T14:03:13.766Z,8.50
2023-01-28T14:05:58.474Z,8.02
2023-01-28T14:08:57.287Z,8.70
2023-01-28T14:11:42.587Z,8.55
2023-01-28T14:14:31.121Z,7.80
2023-01-28T14:17:30.421Z,9.73
2023-01-28T14:19:58.377Z,8.65
2023-01-28T14:22:26.087Z,8.43
2023-01-28T14:24:53.085Z,8.52
2023-01-28T14:27:47.503Z,8.90
2023-01-28T14:30:41.630Z,8.85
2023-01-28T14:33:11.896Z,8.73
2023-01-28T14:35:44.428Z,8.90
2023-01-28T14:38:16.838Z,9.35
2023-01-28T14:40:43.921Z,9.10
2023-01-28T14:43:18.074Z,9.00
2023-01-28T14:45:44.527Z,9.82
2023-01-28T14:48:32.012Z,10.05
2023-01-28T14:51:30.345Z,9.32
2023-01-28T14:54:28.908Z,9.93
2023-01-28T14:57:03.534Z,10.23
2023-01-28T14:59:34.432Z,15.43
2023-01-28T15:02:01.842Z,13.57
2023-01-28T15:04:35.598Z,10.25
2023-01-28T15:07:17.223Z,12.20
2023-01-28T15:09:44.368Z,8.02
2023-01-28T15:12:11.556Z,8.23
2023-01-28T15:14:39.770Z,8.10
2023-01-28T15:17:06.655Z,9.93
2023-01-28T15:19:35.852Z,9.18
2023-01-28T15:22:05.686Z,9.23
2023-01-28T15:24:34.880Z,8.90
2023-01-28T15:27:01.935Z,9.45
2023-01-28T15:29:32.362Z,12.10
2023-01-28T15:31:59.499Z,10.45
2023-01-28T15:34:32.527Z,11.55
2023-01-28T15:37:00.447Z,12.35
2023-01-28T15:39:28.882Z,16.15
2023-01-28T15:41:57.513Z,14.35
2023-01-28T15:44:32.394Z,35.67
2023-01-28T15:47:04.593Z,16.80
2023-01-28T15:49:35.517Z,13.07
2023-01-28T15:52:02.462Z,12.88
2023-01-28T15:54:30.630Z,14.05
2023-01-28T15:56:57.464Z,12.75
2023-01-28T15:59:27.869Z,10.30
2023-01-28T16:02:17.667Z,13.75
2023-01-28T16:04:44.264Z,16.13
2023-01-28T16:07:10.931Z,18.90
2023-01-28T16:09:37.503Z,27.88
2023-01-28T16:12:07.458Z,19.33
2023-01-28T16:14:50.431Z,17.27
2023-01-28T16:19:49.362Z,22.73
2023-01-28T16:22:22.152Z,22.27
2023-01-28T16:24:53.899Z,17.67
2023-01-28T16:27:24.775Z,13.77
2023-01-28T16:29:51.390Z,13.15
2023-01-28T16:32:34.364Z,13.27
2023-01-28T16:35:01.812Z,9.55
2023-01-28T16:37:28.700Z,12.70
2023-01-28T16:39:55.284Z,13.57
2023-01-28T16:42:21.922Z,14.35
2023-01-28T16:44:48.474Z,15.18
2023-01-28T16:47:14.975Z,14.27
2023-01-28T16:49:41.593Z,13.57
2023-01-28T16:52:11.203Z,14.23
2023-01-28T16:54:39.157Z,15.13
2023-01-28T16:57:05.722Z,15.80
2023-01-28T16:59:32.246Z,15.07
2023-01-28T17:01:58.827Z,15.25
2023-01-28T17:04:25.388Z,21.35
2023-01-28T17:06:53.219Z,25.23
2023-01-28T17:09:20.482Z,17.92
2023-01-28T17:11:47.700Z,19.27
2023-01-28T17:14:14.236Z,14.15
2023-01-28T17:16:40.986Z,18.67
2023-01-28T17:19:07.694Z,15.82
2023-01-28T17:21:34.337Z,18.48
2023-01-28T17:24:01.527Z,20.13
2023-01-28T17:26:31.633Z,19.13
2023-01-28T17:28:58.337Z,21.73
2023-01-28T17:31:26.410Z,22.02
2023-01-28T17:33:55.337Z,16.17
2023-01-28T17:36:22.483Z,16.85
2023-01-28T17:38:49.089Z,18.08
2023-01-28T17:41:17.254Z,17.45
2023-01-28T17:43:44.423Z,20.00
2023-01-28T17:46:15.837Z,19.92
2023-01-28T17:48:45.647Z,17.85
2023-01-28T17:51:13.693Z,18.20
2023-01-28T17:53:44.667Z,18.05
2023-01-28T17:56:16.909Z,18.42
2023-01-28T17:58:43.484Z,17.42
2023-01-28T18:01:10.839Z,18.25
2023-01-28T18:03:37.431Z,20.35
2023-01-28T18:06:04.458Z,20.30
2023-01-28T18:08:30.978Z,19.55
2023-01-28T18:10:57.586Z,18.73
2023-01-28T18:13:24.216Z,18.55
2023-01-28T18:15:50.782Z,21.70
2023-01-28T18:18:17.352Z,18.75
2023-01-28T18:20:43.846Z,18.80
2023-01-28T18:23:10.427Z,18.13
2023-01-28T18:25:37.225Z,18.10
2023-01-28T18:28:05.640Z,18.50
2023-01-28T18:30:32.175Z,19.00
2023-01-28T18:32:58.760Z,23.00
2023-01-28T18:35:25.321Z,21.77
2023-01-28T18:37:51.883Z,25.13
2023-01-28T18:40:18.669Z,27.42
2023-01-28T18:42:45.223Z,22.92
2023-01-28T18:45:11.824Z,21.83
2023-01-28T18:47:38.397Z,22.15
2023-01-28T18:50:05.625Z,23.80
2023-01-28T18:52:32.239Z,24.02
2023-01-28T18:54:58.747Z,25.30
2023-01-28T18:57:25.271Z,25.65
2023-01-28T18:59:51.832Z,27.55
2023-01-28T19:02:18.520Z,26.63
2023-01-28T19:04:45.070Z,30.00
2023-01-28T19:07:12.034Z,25.58
2023-01-28T19:09:38.648Z,27.00
2023-01-28T19:12:05.830Z,26.73
2023-01-28T19:14:32.623Z,25.83
2023-01-28T19:16:59.584Z,30.55
2023-01-28T19:19:26.373Z,32.53
2023-01-28T19:21:53.467Z,28.85
2023-01-28T19:24:20.390Z,25.35
2023-01-28T19:26:46.963Z,27.60
2023-01-28T19:29:16.155Z,30.10
2023-01-28T19:31:44.323Z,30.00
2023-01-28T19:34:11.354Z,28.45
2023-01-28T19:36:38.055Z,25.65
2023-01-28T19:39:07.860Z,26.33
2023-01-28T19:41:35.950Z,33.53
2023-01-28T19:44:02.655Z,45.53
2023-01-28T19:46:29.293Z,35.58
2023-01-28T19:48:56.151Z,30.33
2023-01-28T19:51:22.959Z,24.60
2023-01-28T19:53:53.930Z,26.33
2023-01-28T19:56:22.911Z,26.63
2023-01-28T19:58:49.972Z,28.73
2023-01-28T20:01:20.345Z,39.33
2023-01-28T20:03:52.715Z,33.58
2023-01-28T20:06:19.636Z,32.22
2023-01-28T20:08:51.711Z,30.48
2023-01-28T20:11:18.652Z,28.42
2023-01-28T20:13:46.900Z,27.98
2023-01-28T20:16:17.801Z,25.00
2023-01-28T20:18:49.896Z,27.15
2023-01-28T20:21:18.760Z,37.63
2023-01-28T20:23:46.545Z,36.08
2023-01-28T20:26:13.100Z,36.10
2023-01-28T20:28:39.880Z,35.75
2023-01-28T20:31:10.187Z,33.15
2023-01-28T20:33:38.754Z,36.13
2023-01-28T20:36:11.312Z,34.58
2023-01-28T20:38:42.922Z,37.65
2023-01-28T20:41:12.458Z,63.33
2023-01-28T20:43:41.087Z,42.85
2023-01-28T20:46:13.237Z,35.30
2023-01-28T20:48:39.933Z,37.38
2023-01-28T20:51:14.120Z,36.03
2023-01-28T20:53:41.849Z,33.50
2023-01-28T20:56:10.101Z,34.70
2023-01-28T20:58:36.894Z,31.35
2023-01-28T21:01:04.241Z,34.08
2023-01-28T21:03:31.008Z,40.38
2023-01-28T21:05:57.534Z,32.20
2023-01-28T21:08:24.292Z,35.80
2023-01-28T21:10:50.891Z,41.58
2023-01-28T21:13:17.610Z,38.13
2023-01-28T21:15:55.730Z,40.70
2023-01-28T21:18:23.217Z,42.88
2023-01-28T21:20:50.770Z,36.80
2023-01-28T21:23:18.496Z,36.63
2023-01-28T21:25:52.501Z,33.10
2023-01-28T21:28:19.961Z,36.38
2023-01-28T21:30:47.482Z,38.53
2023-01-28T21:33:14.132Z,41.90
2023-01-28T21:35:43.271Z,36.53
2023-01-28T21:38:10.763Z,30.92
2023-01-28T21:40:37.895Z,38.53
2023-01-28T21:43:04.559Z,29.98
2023-01-28T21:45:31.109Z,31.20
2023-01-28T21:47:57.969Z,32.60
2023-01-28T21:50:24.809Z,31.80
2023-01-28T21:52:51.389Z,29.92
2023-01-28T21:55:18.623Z,30.17
2023-01-28T21:57:45.152Z,29.75
2023-01-28T22:00:13.070Z,35.13
2023-01-28T22:02:40.372Z,29.42
2023-01-28T22:05:07.306Z,26.58
2023-01-28T22:07:33.969Z,29.80
2023-01-28T22:10:00.622Z,28.67
2023-01-28T22:12:28.095Z,30.42
2023-01-28T22:14:54.844Z,28.90
2023-01-28T22:17:21.461Z,31.08
2023-01-28T22:19:48.188Z,28.60
2023-01-28T22:22:16.377Z,31.08
2023-01-28T22:24:42.959Z,30.70
2023-01-28T22:27:10.060Z,30.58
2023-01-28T22:29:36.607Z,32.35
2023-01-28T22:32:04.720Z,33.10
2023-01-28T22:34:31.710Z,29.73
2023-01-28T22:36:58.296Z,30.40
2023-01-28T22:39:25.017Z,35.22
2023-01-28T22:41:51.590Z,37.95
2023-01-28T22:44:19.886Z,31.65
2023-01-28T22:46:47.314Z,34.60
2023-01-28T22:49:15.000Z,33.13
2023-01-28T22:51:41.961Z,30.45
2023-01-28T22:54:10.977Z,33.95
2023-01-28T22:56:38.238Z,30.83
2023-01-28T22:59:04.883Z,32.10
2023-01-28T23:01:31.554Z,34.08
2023-01-28T23:03:58.532Z,34.78
2023-01-28T23:06:27.482Z,41.33
2023-01-28T23:08:56.110Z,38.58
2023-01-28T23:11:27.197Z,34.55
2023-01-28T23:14:14.808Z,29.75
2023-01-28T23:17:00.366Z,31.33
2023-01-28T23:19:45.528Z,34.05
2023-01-28T23:22:34.363Z,30.27
2023-01-28T23:25:00.971Z,29.40
2023-01-28T23:27:27.628Z,27.70
2023-01-28T23:29:54.221Z,27.95
2023-01-28T23:32:21.654Z,29.90
2023-01-28T23:34:48.316Z,28.35
2023-01-28T23:37:15.925Z,28.95
2023-01-28T23:39:43.118Z,29.58
2023-01-28T23:42:20.865Z,27.30
2023-01-28T23:44:47.747Z,26.25
2023-01-28T23:47:14.645Z,28.23
2023-01-28T23:49:41.437Z,27.17
2023-01-28T23:52:08.859Z,34.03
2023-01-28T23:54:35.934Z,29.17
2023-01-28T23:57:03.267Z,28.98
2023-01-28T23:59:30.063Z,28.48
